Time;durP1;ratioP1;P1;durP2;ratioP2;P2;SDS_P1;SDS_P2;PMS_P1;PMS_P2;Temp;Humidity;BMP_temperature;BMP_pressure;BME280_temperature;BME280_humidity;BME280_pressure;Samples;Min_cycle;Max_cycle;Signal;HPM_P1;HPM_P2
2021/09/11 00:01:49;;;;;;;9.20;4.35;;;;;;;;;;4989362;28;20068;-80
2021/09/11 00:04:15;;;;;;;6.03;3.38;;;;;;;;;;5021954;28;20564;-80
2021/09/11 00:06:41;;;;;;;7.82;3.80;;;;;;;;;;4991117;28;20040;-81
2021/09/11 00:09:07;;;;;;;6.22;3.90;;;;;;;;;;4992251;28;20041;-80
2021/09/11 00:11:33;;;;;;;9.40;4.00;;;;;;;;;;4997945;28;20392;-81
2021/09/11 00:13:58;;;;;;;9.73;3.90;;;;;;;;;;5016968;28;20045;-80
2021/09/11 00:16:24;;;;;;;8.40;3.80;;;;;;;;;;5018493;28;20037;-81
2021/09/11 00:18:50;;;;;;;7.72;3.70;;;;;;;;;;5037757;28;20409;-82
2021/09/11 00:21:16;;;;;;;6.30;3.92;;;;;;;;;;5001464;28;20034;-82
2021/09/11 00:23:42;;;;;;;4.38;2.63;;;;;;;;;;4981519;28;20391;-80
2021/09/11 00:26:08;;;;;;;8.15;3.70;;;;;;;;;;5011713;28;20043;-82
2021/09/11 00:28:33;;;;;;;8.85;3.70;;;;;;;;;;5021090;28;20090;-81
2021/09/11 00:30:59;;;;;;;6.38;3.70;;;;;;;;;;5014001;28;20037;-82
2021/09/11 00:33:26;;;;;;;3.88;2.35;;;;;;;;;;4988952;28;20472;-81
2021/09/11 00:35:52;;;;;;;8.90;4.03;;;;;;;;;;5020744;28;20430;-82
2021/09/11 00:38:18;;;;;;;6.97;3.78;;;;;;;;;;5021224;28;20453;-81
2021/09/11 00:40:44;;;;;;;9.68;3.92;;;;;;;;;;5004364;28;20561;-82
2021/09/11 00:43:10;;;;;;;11.32;4.60;;;;;;;;;;5021144;28;20546;-83
2021/09/11 00:45:35;;;;;;;7.00;3.92;;;;;;;;;;5023284;28;20033;-83
2021/09/11 00:48:01;;;;;;;8.43;4.20;;;;;;;;;;5004159;28;20094;-82
2021/09/11 00:50:29;;;;;;;6.05;3.80;;;;;;;;;;5002516;28;20087;-81
2021/09/11 00:52:56;;;;;;;9.30;3.80;;;;;;;;;;5035285;28;20037;-79
2021/09/11 00:55:22;;;;;;;8.50;4.22;;;;;;;;;;5009953;28;20137;-81
2021/09/11 00:57:51;;;;;;;7.18;4.00;;;;;;;;;;4985854;28;20068;-81
2021/09/11 01:00:17;;;;;;;9.30;4.47;;;;;;;;;;5019495;28;20102;-81
2021/09/11 01:02:43;;;;;;;8.75;4.10;;;;;;;;;;5002671;28;20420;-80
2021/09/11 01:05:09;;;;;;;6.93;4.10;;;;;;;;;;5005955;28;20522;-81
2021/09/11 01:07:38;;;;;;;7.97;4.10;;;;;;;;;;4985933;28;20092;-80
2021/09/11 01:10:05;;;;;;;7.25;3.88;;;;;;;;;;5003223;28;20047;-80
2021/09/11 01:12:31;;;;;;;6.63;3.72;;;;;;;;;;4986061;28;20112;-79
2021/09/11 01:15:07;;;;;;;9.52;4.40;;;;;;;;;;4986411;28;20116;-81
2021/09/11 01:17:33;;;;;;;5.97;3.67;;;;;;;;;;5017265;28;20052;-82
2021/09/11 01:19:59;;;;;;;8.43;4.40;;;;;;;;;;5036681;28;20579;-81
2021/09/11 01:22:25;;;;;;;11.38;4.30;;;;;;;;;;5016849;28;20036;-82
2021/09/11 01:24:58;;;;;;;8.27;4.15;;;;;;;;;;5000833;28;20133;-81
2021/09/11 01:27:24;;;;;;;7.45;4.43;;;;;;;;;;4999253;28;20041;-81
2021/09/11 01:29:57;;;;;;;8.50;5.00;;;;;;;;;;4990131;28;20037;-81
2021/09/11 01:32:23;;;;;;;9.75;5.00;;;;;;;;;;5035935;28;20060;-81
2021/09/11 01:34:50;;;;;;;11.65;4.70;;;;;;;;;;4988319;28;20589;-80
2021/09/11 01:37:17;;;;;;;8.73;4.50;;;;;;;;;;5002162;28;20554;-80
2021/09/11 01:39:47;;;;;;;10.43;4.95;;;;;;;;;;5018214;28;20040;-80
2021/09/11 01:42:15;;;;;;;8.88;4.60;;;;;;;;;;5021551;28;20036;-80
2021/09/11 01:44:48;;;;;;;7.35;4.90;;;;;;;;;;5006127;28;20121;-82
2021/09/11 01:47:14;;;;;;;8.23;3.95;;;;;;;;;;5005951;28;20112;-81
2021/09/11 01:49:41;;;;;;;9.70;3.97;;;;;;;;;;5018552;28;20057;-81
2021/09/11 01:52:07;;;;;;;9.15;5.00;;;;;;;;;;4997496;28;20521;-81
2021/09/11 01:54:34;;;;;;;11.20;5.15;;;;;;;;;;5024192;28;20047;-81
2021/09/11 01:56:59;;;;;;;14.65;7.20;;;;;;;;;;5006780;28;20047;-82
2021/09/11 01:59:25;;;;;;;9.70;4.45;;;;;;;;;;5009302;28;20036;-82
2021/09/11 02:01:57;;;;;;;10.18;4.93;;;;;;;;;;5022466;28;20037;-80
2021/09/11 02:04:23;;;;;;;11.50;5.40;;;;;;;;;;5020218;28;20040;-81
2021/09/11 02:06:54;;;;;;;12.52;5.75;;;;;;;;;;5022325;28;20439;-82
2021/09/11 02:09:19;;;;;;;8.75;4.95;;;;;;;;;;5022359;28;20033;-81
2021/09/11 02:11:54;;;;;;;10.68;4.97;;;;;;;;;;5021567;28;20047;-81
2021/09/11 02:14:20;;;;;;;10.18;4.72;;;;;;;;;;5009179;28;20047;-80
2021/09/11 02:16:46;;;;;;;9.35;4.70;;;;;;;;;;4983613;28;20115;-80
2021/09/11 02:19:12;;;;;;;7.97;5.22;;;;;;;;;;5001167;28;20033;-81
2021/09/11 02:21:50;;;;;;;9.02;4.90;;;;;;;;;;5004583;28;20262;-81
2021/09/11 02:24:19;;;;;;;10.55;5.75;;;;;;;;;;5020595;28;20060;-82
2021/09/11 02:26:45;;;;;;;7.68;4.65;;;;;;;;;;5020428;28;20037;-82
2021/09/11 02:29:14;;;;;;;8.23;5.18;;;;;;;;;;5006436;28;20124;-81
2021/09/11 02:31:47;;;;;;;9.32;5.03;;;;;;;;;;5021097;28;20135;-80
2021/09/11 02:34:28;;;;;;;13.80;5.07;;;;;;;;;;5008249;28;20033;-83
2021/09/11 02:36:57;;;;;;;10.05;4.30;;;;;;;;;;5000205;28;20041;-83
2021/09/11 02:39:23;;;;;;;10.05;4.95;;;;;;;;;;4998632;28;20041;-83
2021/09/11 02:41:49;;;;;;;10.35;4.68;;;;;;;;;;5020118;28;20110;-80
2021/09/11 02:44:14;;;;;;;10.40;5.03;;;;;;;;;;5017203;28;20091;-81
2021/09/11 02:46:58;;;;;;;11.90;5.15;;;;;;;;;;5001762;28;20037;-83
2021/09/11 02:49:28;;;;;;;12.60;5.22;;;;;;;;;;5014428;28;20048;-82
2021/09/11 02:51:54;;;;;;;15.88;5.78;;;;;;;;;;5019333;28;20064;-83
2021/09/11 02:54:19;;;;;;;11.25;5.60;;;;;;;;;;5008037;28;20041;-84
2021/09/11 02:56:48;;;;;;;14.50;5.88;;;;;;;;;;5004480;28;20403;-83
2021/09/11 02:59:14;;;;;;;16.33;5.55;;;;;;;;;;5000932;28;20041;-85
2021/09/11 03:01:40;;;;;;;8.75;4.30;;;;;;;;;;5007939;28;20037;-81
2021/09/11 03:04:05;;;;;;;9.30;5.15;;;;;;;;;;5006254;28;20431;-83
2021/09/11 03:06:31;;;;;;;13.43;5.35;;;;;;;;;;5007836;28;20049;-82
2021/09/11 03:08:57;;;;;;;18.33;5.80;;;;;;;;;;5019206;28;20067;-80
2021/09/11 03:11:23;;;;;;;11.18;5.28;;;;;;;;;;5008810;28;20584;-79
2021/09/11 03:13:52;;;;;;;12.50;5.68;;;;;;;;;;5045414;28;20444;-82
2021/09/11 03:16:22;;;;;;;12.93;5.93;;;;;;;;;;5025448;28;20440;-82
2021/09/11 03:18:51;;;;;;;15.80;5.78;;;;;;;;;;5015354;28;20032;-80
2021/09/11 03:21:17;;;;;;;10.40;5.60;;;;;;;;;;5003422;28;20041;-80
2021/09/11 03:23:54;;;;;;;11.20;5.90;;;;;;;;;;5022931;28;20063;-83
2021/09/11 03:26:20;;;;;;;21.00;5.78;;;;;;;;;;5023762;28;20592;-84
2021/09/11 03:28:51;;;;;;;18.38;6.35;;;;;;;;;;5023830;28;20056;-82
2021/09/11 03:31:17;;;;;;;11.30;5.10;;;;;;;;;;4990090;28;20094;-79
2021/09/11 03:33:43;;;;;;;11.65;4.90;;;;;;;;;;5028107;28;20051;-80
2021/09/11 03:36:09;;;;;;;21.10;5.90;;;;;;;;;;5018569;28;20072;-82
2021/09/11 03:38:38;;;;;;;10.68;5.25;;;;;;;;;;5036655;28;20044;-83
2021/09/11 03:41:10;;;;;;;11.95;5.38;;;;;;;;;;5012560;28;20093;-82
2021/09/11 03:43:39;;;;;;;14.65;5.07;;;;;;;;;;5022410;28;20033;-83
2021/09/11 03:46:06;;;;;;;16.60;5.32;;;;;;;;;;5018436;28;20053;-83
2021/09/11 03:48:32;;;;;;;11.25;5.88;;;;;;;;;;5003625;28;20045;-83
2021/09/11 03:51:02;;;;;;;14.80;5.32;;;;;;;;;;5009578;28;20052;-83
2021/09/11 03:53:40;;;;;;;12.20;5.85;;;;;;;;;;5004154;28;20036;-83
2021/09/11 03:56:06;;;;;;;15.38;5.60;;;;;;;;;;5021132;28;20414;-82
2021/09/11 03:58:33;;;;;;;14.45;5.20;;;;;;;;;;5006661;28;20459;-80
2021/09/11 04:01:01;;;;;;;20.20;5.20;;;;;;;;;;5003126;28;20033;-80
2021/09/11 04:03:28;;;;;;;12.55;5.68;;;;;;;;;;5013638;28;20607;-82
2021/09/11 04:05:54;;;;;;;14.48;5.32;;;;;;;;;;5024741;28;20045;-85
2021/09/11 04:08:20;;;;;;;16.98;5.40;;;;;;;;;;4986695;28;20044;-86
2021/09/11 04:10:58;;;;;;;15.30;5.72;;;;;;;;;;4990503;28;20111;-83
2021/09/11 04:13:33;;;;;;;23.35;5.55;;;;;;;;;;4996988;28;20033;-80
2021/09/11 04:16:00;;;;;;;13.40;5.47;;;;;;;;;;5022600;28;20032;-80
2021/09/11 04:18:29;;;;;;;13.13;5.10;;;;;;;;;;4975983;28;20041;-83
2021/09/11 04:20:58;;;;;;;16.02;5.20;;;;;;;;;;5006365;28;20071;-82
2021/09/11 04:23:33;;;;;;;16.05;5.32;;;;;;;;;;4992071;28;20041;-83
2021/09/11 04:25:58;;;;;;;12.80;4.90;;;;;;;;;;5009138;28;20044;-80
2021/09/11 04:28:37;;;;;;;15.02;5.25;;;;;;;;;;5007819;28;20036;-82
2021/09/11 04:31:05;;;;;;;14.48;5.15;;;;;;;;;;4987037;28;20087;-83
2021/09/11 04:33:40;;;;;;;18.38;5.72;;;;;;;;;;5002711;28;20037;-83
2021/09/11 04:36:07;;;;;;;25.38;6.07;;;;;;;;;;5019428;28;20466;-86
2021/09/11 04:38:33;;;;;;;8.07;4.25;;;;;;;;;;5022433;28;20510;-85
2021/09/11 04:41:08;;;;;;;15.68;5.40;;;;;;;;;;5020782;28;20052;-84
2021/09/11 04:43:34;;;;;;;12.55;5.43;;;;;;;;;;5007671;28;20098;-81
2021/09/11 04:46:03;;;;;;;15.73;5.07;;;;;;;;;;4990486;28;20127;-82
2021/09/11 04:48:35;;;;;;;19.42;5.70;;;;;;;;;;5014296;28;20580;-82
2021/09/11 04:51:01;;;;;;;12.70;5.30;;;;;;;;;;5002988;28;20037;-83
2021/09/11 04:53:32;;;;;;;18.33;4.82;;;;;;;;;;5004301;28;20105;-83
2021/09/11 04:56:16;;;;;;;20.23;5.35;;;;;;;;;;5008720;28;20112;-82
2021/09/11 04:58:45;;;;;;;16.15;4.93;;;;;;;;;;5022394;28;20052;-81
2021/09/11 05:01:11;;;;;;;12.82;5.00;;;;;;;;;;5031602;28;20056;-85
2021/09/11 05:03:36;;;;;;;13.80;5.13;;;;;;;;;;5009030;28;20115;-85
2021/09/11 05:06:05;;;;;;;12.85;5.40;;;;;;;;;;4995854;28;20079;-81
2021/09/11 05:08:34;;;;;;;18.80;5.35;;;;;;;;;;5000928;28;20041;-84
2021/09/11 05:11:03;;;;;;;15.38;5.32;;;;;;;;;;5003732;28;20033;-84
2021/09/11 05:13:31;;;;;;;13.50;5.18;;;;;;;;;;5021811;28;20032;-82
2021/09/11 05:15:57;;;;;;;16.60;5.35;;;;;;;;;;5026168;28;20470;-83
2021/09/11 05:18:23;;;;;;;20.00;5.32;;;;;;;;;;5017666;28;20591;-81
2021/09/11 05:20:52;;;;;;;23.27;6.07;;;;;;;;;;4999049;28;20044;-79
2021/09/11 05:23:26;;;;;;;17.02;5.18;;;;;;;;;;4996783;28;20037;-79
2021/09/11 05:26:34;;;;;;;19.27;5.10;;;;;;;;;;5012950;28;20037;-82
2021/09/11 05:29:23;;;;;;;16.17;5.22;;;;;;;;;;5006659;28;20038;-83
2021/09/11 05:31:52;;;;;;;14.65;4.55;;;;;;;;;;5027747;28;20530;-83
2021/09/11 05:34:21;;;;;;;19.65;5.30;;;;;;;;;;5044011;28;20036;-83
2021/09/11 05:36:49;;;;;;;21.15;5.35;;;;;;;;;;5025046;28;20411;-86
2021/09/11 05:39:18;;;;;;;12.68;5.13;;;;;;;;;;5005518;28;20051;-81
2021/09/11 05:41:47;;;;;;;13.93;4.65;;;;;;;;;;5038422;28;20037;-82
2021/09/11 05:44:13;;;;;;;18.95;4.80;;;;;;;;;;5021950;28;20044;-83
2021/09/11 05:46:41;;;;;;;19.58;4.45;;;;;;;;;;4991983;28;20094;-86
2021/09/11 05:49:07;;;;;;;12.98;4.15;;;;;;;;;;4985678;28;20036;-82
2021/09/11 05:51:33;;;;;;;22.25;6.20;;;;;;;;;;5009568;28;20175;-82
2021/09/11 05:54:02;;;;;;;16.65;4.50;;;;;;;;;;5016160;28;20161;-82
2021/09/11 05:56:28;;;;;;;19.85;4.82;;;;;;;;;;5024551;28;20037;-81
2021/09/11 05:59:16;;;;;;;16.25;4.30;;;;;;;;;;5006471;28;20086;-83
2021/09/11 06:01:57;;;;;;;10.35;4.00;;;;;;;;;;5003520;28;20044;-83
2021/09/11 06:04:23;;;;;;;25.98;6.82;;;;;;;;;;5003621;28;20032;-80
2021/09/11 06:06:58;;;;;;;16.02;4.55;;;;;;;;;;5003190;28;20056;-80
2021/09/11 06:09:24;;;;;;;17.17;4.10;;;;;;;;;;4997813;28;20037;-80
2021/09/11 06:11:51;;;;;;;14.75;5.10;;;;;;;;;;4997970;28;20041;-81
2021/09/11 06:14:17;;;;;;;14.10;4.35;;;;;;;;;;5002398;28;20546;-81
2021/09/11 06:16:42;;;;;;;18.42;4.75;;;;;;;;;;5006013;28;20052;-81
2021/09/11 06:19:20;;;;;;;19.13;4.68;;;;;;;;;;4983664;28;20071;-82
2021/09/11 06:21:46;;;;;;;19.23;4.75;;;;;;;;;;4999912;28;20400;-81
2021/09/11 06:24:12;;;;;;;16.75;4.57;;;;;;;;;;4988457;28;20045;-82
2021/09/11 06:26:38;;;;;;;15.48;4.88;;;;;;;;;;5005352;28;20060;-81
2021/09/11 06:29:04;;;;;;;14.57;4.93;;;;;;;;;;5008386;28;20526;-81
2021/09/11 06:31:30;;;;;;;13.82;4.07;;;;;;;;;;4987162;28;20102;-82
2021/09/11 06:33:57;;;;;;;18.77;3.83;;;;;;;;;;5008146;28;20420;-81
2021/09/11 06:36:22;;;;;;;12.32;4.20;;;;;;;;;;5000540;28;20041;-81
2021/09/11 06:38:48;;;;;;;13.10;4.10;;;;;;;;;;4996903;28;20048;-82
2021/09/11 06:41:15;;;;;;;9.90;4.65;;;;;;;;;;4964664;28;20034;-81
2021/09/11 06:43:41;;;;;;;14.13;4.60;;;;;;;;;;4994102;28;20037;-81
2021/09/11 06:46:08;;;;;;;8.93;3.80;;;;;;;;;;4988281;28;20068;-81
2021/09/11 06:48:59;;;;;;;11.45;4.03;;;;;;;;;;4983784;28;20049;-82
2021/09/11 06:51:25;;;;;;;17.70;4.75;;;;;;;;;;5002047;28;20465;-80
2021/09/11 06:53:54;;;;;;;16.70;4.40;;;;;;;;;;4983667;28;20038;-81
2021/09/11 06:56:20;;;;;;;10.57;4.10;;;;;;;;;;4983941;28;20064;-81
2021/09/11 06:58:46;;;;;;;11.38;4.25;;;;;;;;;;5001783;28;20490;-80
2021/09/11 07:01:17;;;;;;;11.52;3.90;;;;;;;;;;4988465;28;20419;-83
2021/09/11 07:03:45;;;;;;;11.05;3.80;;;;;;;;;;4985152;28;20164;-80
2021/09/11 07:06:23;;;;;;;15.43;4.45;;;;;;;;;;4982047;28;20044;-81
2021/09/11 07:08:49;;;;;;;24.35;5.57;;;;;;;;;;5000872;28;20135;-80
2021/09/11 07:11:15;;;;;;;28.50;7.40;;;;;;;;;;4972188;28;20041;-80
2021/09/11 07:13:41;;;;;;;26.83;7.30;;;;;;;;;;4982791;28;20045;-81
2021/09/11 07:16:07;;;;;;;28.23;7.82;;;;;;;;;;4974994;28;20041;-81
2021/09/11 07:18:34;;;;;;;22.83;5.88;;;;;;;;;;5002718;28;20640;-86
2021/09/11 07:20:59;;;;;;;26.17;7.95;;;;;;;;;;5002360;28;20063;-82
2021/09/11 07:23:26;;;;;;;29.73;8.43;;;;;;;;;;5002152;28;20046;-81
2021/09/11 07:25:53;;;;;;;28.90;7.95;;;;;;;;;;4988095;28;20057;-84
2021/09/11 07:28:19;;;;;;;22.90;7.18;;;;;;;;;;5001903;28;20052;-79
2021/09/11 07:30:48;;;;;;;43.30;8.20;;;;;;;;;;5002769;28;20037;-83
2021/09/11 07:33:29;;;;;;;31.40;8.95;;;;;;;;;;4973791;28;20041;-82
2021/09/11 07:35:55;;;;;;;27.00;6.38;;;;;;;;;;4982859;28;20068;-82
2021/09/11 07:38:21;;;;;;;26.67;7.07;;;;;;;;;;4986671;28;20033;-81
2021/09/11 07:40:46;;;;;;;25.02;7.30;;;;;;;;;;5009896;28;20034;-81
2021/09/11 07:43:12;;;;;;;20.98;5.68;;;;;;;;;;5041697;28;20041;-81
2021/09/11 07:45:38;;;;;;;24.05;7.60;;;;;;;;;;5037902;28;20048;-83
2021/09/11 07:48:05;;;;;;;20.70;5.20;;;;;;;;;;5035196;28;20044;-84
2021/09/11 07:50:31;;;;;;;21.02;4.60;;;;;;;;;;5018478;28;20110;-82
2021/09/11 07:52:57;;;;;;;30.20;9.95;;;;;;;;;;5003423;28;20047;-82
2021/09/11 07:55:23;;;;;;;25.73;6.93;;;;;;;;;;5003006;28;20483;-83
2021/09/11 07:57:49;;;;;;;19.50;6.13;;;;;;;;;;5019583;28;20052;-83
2021/09/11 08:00:17;;;;;;;26.13;7.60;;;;;;;;;;4983598;28;20419;-83
2021/09/11 08:02:43;;;;;;;29.45;8.15;;;;;;;;;;4987096;28;20056;-82
2021/09/11 08:05:09;;;;;;;14.70;4.13;;;;;;;;;;4968241;28;20030;-82
2021/09/11 08:07:35;;;;;;;28.50;8.40;;;;;;;;;;4983311;28;20107;-83
2021/09/11 08:10:01;;;;;;;19.65;5.88;;;;;;;;;;4996625;28;20116;-82
2021/09/11 08:12:27;;;;;;;25.83;8.50;;;;;;;;;;4980652;28;20044;-81
2021/09/11 08:14:53;;;;;;;22.77;8.25;;;;;;;;;;5004983;28;20045;-84
2021/09/11 08:17:18;;;;;;;23.35;6.78;;;;;;;;;;5018147;28;20047;-83
2021/09/11 08:19:44;;;;;;;19.20;5.30;;;;;;;;;;4999113;28;20159;-82
2021/09/11 08:22:10;;;;;;;21.23;7.00;;;;;;;;;;4989377;28;20048;-83
2021/09/11 08:24:36;;;;;;;15.65;4.95;;;;;;;;;;5006450;28;20040;-83
2021/09/11 08:27:02;;;;;;;19.60;5.60;;;;;;;;;;4970238;28;20060;-83
2021/09/11 08:29:28;;;;;;;20.00;7.07;;;;;;;;;;4981185;28;20049;-81
2021/09/11 08:31:54;;;;;;;19.33;6.88;;;;;;;;;;4982888;28;20049;-83
2021/09/11 08:34:19;;;;;;;15.02;5.13;;;;;;;;;;4998439;28;20038;-82
2021/09/11 08:36:45;;;;;;;14.20;5.20;;;;;;;;;;4966117;28;20042;-81
2021/09/11 08:39:11;;;;;;;19.23;5.65;;;;;;;;;;4988559;28;20042;-83
2021/09/11 08:41:37;;;;;;;25.08;7.45;;;;;;;;;;4991156;28;20120;-82
2021/09/11 08:44:03;;;;;;;16.17;5.28;;;;;;;;;;5018126;28;20116;-81
2021/09/11 08:46:29;;;;;;;23.55;7.97;;;;;;;;;;5001495;28;20053;-82
2021/09/11 08:48:55;;;;;;;33.53;6.85;;;;;;;;;;5002642;28;20056;-82
2021/09/11 08:51:21;;;;;;;25.52;8.35;;;;;;;;;;5019272;28;20037;-82
2021/09/11 08:53:47;;;;;;;26.88;7.28;;;;;;;;;;5002567;28;20552;-83
2021/09/11 08:56:13;;;;;;;17.83;6.13;;;;;;;;;;5036092;28;20037;-82
2021/09/11 08:58:39;;;;;;;24.35;6.72;;;;;;;;;;5019309;28;20064;-83
2021/09/11 09:01:06;;;;;;;19.42;6.55;;;;;;;;;;4986414;28;20070;-83
2021/09/11 09:03:42;;;;;;;20.95;5.20;;;;;;;;;;4986626;28;20041;-83
2021/09/11 09:06:27;;;;;;;20.60;5.72;;;;;;;;;;5007629;28;20445;-81
2021/09/11 09:08:57;;;;;;;29.88;8.93;;;;;;;;;;5007740;28;20111;-83
2021/09/11 09:11:27;;;;;;;;;;;;;;;;;;5005654;28;20067;-82
2021/09/11 09:13:55;;;;;;;20.08;5.40;;;;;;;;;;5002815;28;19947;-83
2021/09/11 09:16:22;;;;;;;22.85;6.85;;;;;;;;;;5004802;28;20111;-83
2021/09/11 09:18:48;;;;;;;24.70;8.18;;;;;;;;;;5001233;28;20048;-83
2021/09/11 09:21:24;;;;;;;23.30;6.13;;;;;;;;;;5001992;28;20037;-83
2021/09/11 09:23:56;;;;;;;14.75;5.32;;;;;;;;;;5018364;28;20530;-83
2021/09/11 09:26:22;;;;;;;20.23;6.65;;;;;;;;;;4985323;28;20045;-82
2021/09/11 09:29:10;;;;;;;25.25;6.43;;;;;;;;;;4981682;28;20183;-83
2021/09/11 09:31:36;;;;;;;15.00;4.65;;;;;;;;;;4981727;28;20519;-82
2021/09/11 09:34:03;;;;;;;9.35;3.83;;;;;;;;;;4998671;28;20057;-83
2021/09/11 09:36:30;;;;;;;13.95;5.35;;;;;;;;;;4966223;28;20136;-83
2021/09/11 09:39:00;;;;;;;28.40;12.40;;;;;;;;;;4993747;28;20057;-81
2021/09/11 09:41:26;;;;;;;12.15;4.40;;;;;;;;;;4989278;28;20060;-83
2021/09/11 09:43:51;;;;;;;23.73;8.35;;;;;;;;;;4983689;28;20502;-83
2021/09/11 09:46:18;;;;;;;20.23;7.20;;;;;;;;;;4987443;28;20120;-82
2021/09/11 09:48:45;;;;;;;11.75;4.68;;;;;;;;;;4971635;28;20126;-80
2021/09/11 09:51:15;;;;;;;23.15;6.72;;;;;;;;;;4977888;28;20040;-78
2021/09/11 09:53:43;;;;;;;22.55;7.20;;;;;;;;;;4990659;28;20033;-78
2021/09/11 09:56:12;;;;;;;16.65;4.85;;;;;;;;;;4984419;28;20052;-79
2021/09/11 09:58:38;;;;;;;17.45;5.50;;;;;;;;;;5015160;28;20179;-80
2021/09/11 10:01:04;;;;;;;23.67;7.45;;;;;;;;;;4995398;28;20116;-80
2021/09/11 10:03:30;;;;;;;21.80;6.90;;;;;;;;;;4987742;28;20030;-79
2021/09/11 10:06:29;;;;;;;15.45;5.22;;;;;;;;;;4994905;28;20531;-80
2021/09/11 10:09:07;;;;;;;22.23;7.45;;;;;;;;;;4974627;28;20080;-77
2021/09/11 10:11:37;;;;;;;22.35;6.85;;;;;;;;;;4971776;28;20136;-80
2021/09/11 10:14:04;;;;;;;16.60;6.65;;;;;;;;;;4986175;28;20518;-79
2021/09/11 10:16:34;;;;;;;18.15;5.47;;;;;;;;;;4978690;28;20048;-78
2021/09/11 10:19:19;;;;;;;21.17;6.60;;;;;;;;;;4989052;28;20049;-77
2021/09/11 10:21:46;;;;;;;13.60;5.25;;;;;;;;;;4987030;28;20044;-79
2021/09/11 10:24:16;;;;;;;15.77;5.40;;;;;;;;;;4959403;28;20049;-76
2021/09/11 10:27:08;;;;;;;17.08;6.30;;;;;;;;;;4991575;28;20589;-80
2021/09/11 10:29:39;;;;;;;15.52;5.70;;;;;;;;;;4982338;28;20515;-78
2021/09/11 10:32:11;;;;;;;14.40;4.95;;;;;;;;;;4993072;28;20561;-80
2021/09/11 10:35:07;;;;;;;14.68;6.22;;;;;;;;;;4994252;28;20033;-78
2021/09/11 10:37:42;;;;;;;10.95;4.47;;;;;;;;;;4981076;28;20033;-77
2021/09/11 10:40:26;;;;;;;11.73;4.63;;;;;;;;;;4990819;28;20044;-78
2021/09/11 10:43:08;;;;;;;15.07;5.25;;;;;;;;;;4990350;28;20037;-77
2021/09/11 10:45:58;;;;;;;12.82;4.97;;;;;;;;;;4990639;28;20110;-76
2021/09/11 10:48:39;;;;;;;15.77;4.80;;;;;;;;;;4983134;28;20411;-77
2021/09/11 10:51:33;;;;;;;15.13;4.78;;;;;;;;;;4974509;28;20291;-77
2021/09/11 10:54:22;;;;;;;14.63;4.80;;;;;;;;;;4991011;28;20033;-77
2021/09/11 10:56:52;;;;;;;8.38;3.67;;;;;;;;;;4988700;28;20033;-78
2021/09/11 10:59:21;;;;;;;9.38;4.90;;;;;;;;;;4979289;28;20103;-78
2021/09/11 11:02:06;;;;;;;10.90;4.80;;;;;;;;;;4985506;28;20531;-78
2021/09/11 11:04:50;;;;;;;15.02;5.38;;;;;;;;;;5008084;28;20033;-78
2021/09/11 11:07:19;;;;;;;7.30;3.45;;;;;;;;;;4990496;28;20115;-78
2021/09/11 11:09:47;;;;;;;11.68;4.32;;;;;;;;;;4991687;28;20056;-77
2021/09/11 11:12:13;;;;;;;13.45;4.97;;;;;;;;;;4990323;28;20041;-77
2021/09/11 11:14:45;;;;;;;14.95;5.35;;;;;;;;;;4974916;28;20037;-79
2021/09/11 11:17:15;;;;;;;17.00;5.65;;;;;;;;;;4989926;28;20041;-80
2021/09/11 11:19:46;;;;;;;15.80;6.50;;;;;;;;;;4989415;28;20063;-79
2021/09/11 11:22:13;;;;;;;15.88;5.60;;;;;;;;;;4958487;28;20114;-81
2021/09/11 11:24:41;;;;;;;20.73;5.40;;;;;;;;;;4993537;28;20643;-78
2021/09/11 11:27:11;;;;;;;15.32;5.30;;;;;;;;;;4993468;28;20124;-82
2021/09/11 11:29:37;;;;;;;15.13;5.30;;;;;;;;;;4997505;28;20064;-78
2021/09/11 11:32:04;;;;;;;15.40;5.50;;;;;;;;;;4994863;28;20060;-80
2021/09/11 11:34:30;;;;;;;12.98;5.35;;;;;;;;;;4961564;28;20400;-78
2021/09/11 11:37:12;;;;;;;12.43;5.05;;;;;;;;;;4997597;28;20543;-78
2021/09/11 11:39:39;;;;;;;12.70;5.18;;;;;;;;;;4988765;28;20055;-80
2021/09/11 11:42:11;;;;;;;6.88;4.20;;;;;;;;;;4996118;28;20033;-78
2021/09/11 11:44:44;;;;;;;16.63;5.28;;;;;;;;;;4990684;28;20419;-81
2021/09/11 11:47:39;;;;;;;9.80;5.22;;;;;;;;;;5001198;28;20060;-81
2021/09/11 11:50:06;;;;;;;15.95;6.30;;;;;;;;;;4982135;28;20053;-80
2021/09/11 11:52:42;;;;;;;22.85;5.68;;;;;;;;;;4992952;28;20438;-81
2021/09/11 11:55:09;;;;;;;13.75;5.05;;;;;;;;;;4998701;28;20033;-82
2021/09/11 11:57:34;;;;;;;16.23;5.30;;;;;;;;;;4999362;28;20087;-79
2021/09/11 12:00:10;;;;;;;14.43;4.93;;;;;;;;;;4989250;28;20037;-80
2021/09/11 12:02:40;;;;;;;12.95;5.40;;;;;;;;;;4987112;28;20048;-79
2021/09/11 12:05:21;;;;;;;11.27;5.30;;;;;;;;;;4982274;28;20041;-81
2021/09/11 12:08:03;;;;;;;11.30;5.07;;;;;;;;;;4987572;28;20041;-79
2021/09/11 12:10:51;;;;;;;14.52;5.95;;;;;;;;;;4992341;28;20094;-80
2021/09/11 12:13:17;;;;;;;17.05;6.60;;;;;;;;;;5003404;28;20040;-83
2021/09/11 12:16:02;;;;;;;15.77;6.30;;;;;;;;;;4974943;28;20425;-89
2021/09/11 12:18:34;;;;;;;23.98;12.90;;;;;;;;;;4969289;28;20554;-88
2021/09/11 12:21:05;;;;;;;14.57;6.35;;;;;;;;;;4999533;28;20094;-83
2021/09/11 12:23:33;;;;;;;11.13;6.20;;;;;;;;;;4985869;28;20037;-80
2021/09/11 12:26:00;;;;;;;10.10;6.30;;;;;;;;;;4981644;28;20041;-83
2021/09/11 12:28:33;;;;;;;17.15;8.48;;;;;;;;;;4998555;28;20041;-80
2021/09/11 12:30:59;;;;;;;10.77;6.55;;;;;;;;;;4980099;28;20079;-82
2021/09/11 12:33:25;;;;;;;12.70;6.65;;;;;;;;;;4982082;28;20037;-84
2021/09/11 12:35:51;;;;;;;16.10;8.85;;;;;;;;;;5001552;28;20056;-84
2021/09/11 12:38:16;;;;;;;18.60;8.07;;;;;;;;;;4988015;28;20068;-80
2021/09/11 12:40:42;;;;;;;16.38;8.15;;;;;;;;;;5035167;28;20037;-82
2021/09/11 12:43:12;;;;;;;13.32;6.75;;;;;;;;;;5017420;28;20588;-84
2021/09/11 12:45:38;;;;;;;13.43;6.80;;;;;;;;;;5002178;28;20040;-83
2021/09/11 12:48:05;;;;;;;13.15;6.10;;;;;;;;;;5002000;28;20049;-89
2021/09/11 12:50:34;;;;;;;85.20;63.42;;;;;;;;;;4987147;28;20049;-88
2021/09/11 12:53:02;;;;;;;756.83;500.48;;;;;;;;;;5005683;28;20120;-81
2021/09/11 12:55:28;;;;;;;18.35;7.75;;;;;;;;;;4987204;28;20037;-86
2021/09/11 12:57:54;;;;;;;19.08;8.60;;;;;;;;;;4989950;28;20553;-85
2021/09/11 13:00:21;;;;;;;19.50;9.40;;;;;;;;;;5002466;28;20040;-87
2021/09/11 13:02:48;;;;;;;20.50;8.50;;;;;;;;;;5010905;28;20045;-80
2021/09/11 13:05:17;;;;;;;1110.00;808.55;;;;;;;;;;4985171;28;20033;-85
2021/09/11 13:07:43;;;;;;;945.08;730.80;;;;;;;;;;4985408;28;20049;-85
2021/09/11 13:10:10;;;;;;;491.80;377.70;;;;;;;;;;4969917;28;20103;-85
2021/09/11 13:12:35;;;;;;;706.10;573.38;;;;;;;;;;4985840;28;20088;-85
2021/09/11 13:15:01;;;;;;;49.95;29.63;;;;;;;;;;5002526;28;20041;-90
2021/09/11 13:17:29;;;;;;;601.95;476.50;;;;;;;;;;5002119;28;20117;-88
2021/09/11 13:19:55;;;;;;;21.45;10.05;;;;;;;;;;4991244;28;20102;-90
2021/09/11 13:22:20;;;;;;;601.83;484.60;;;;;;;;;;4977378;28;20037;-87
2021/09/11 13:24:50;;;;;;;379.48;280.95;;;;;;;;;;4999841;28;20207;-87
2021/09/11 13:27:15;;;;;;;580.33;468.73;;;;;;;;;;4977195;28;20100;-88
2021/09/11 13:29:41;;;;;;;426.67;316.63;;;;;;;;;;5006921;28;20108;-90
2021/09/11 13:32:07;;;;;;;481.80;367.10;;;;;;;;;;5039044;28;20033;-90
2021/09/11 13:35:03;;;;;;;546.17;413.00;;;;;;;;;;4972443;28;20048;-85
2021/09/11 13:37:36;;;;;;;523.85;442.80;;;;;;;;;;5002846;28;20110;-82
2021/09/11 13:40:02;;;;;;;333.60;294.60;;;;;;;;;;4984267;28;20044;-81
2021/09/11 13:42:28;;;;;;;355.73;317.35;;;;;;;;;;4999455;28;20044;-82
2021/09/11 13:44:54;;;;;;;457.17;411.85;;;;;;;;;;4980647;28;20045;-81
2021/09/11 13:47:20;;;;;;;871.60;482.73;;;;;;;;;;4980901;28;20106;-83
2021/09/11 13:49:46;;;;;;;67.15;41.03;;;;;;;;;;4993317;28;20041;-82
2021/09/11 13:52:12;;;;;;;72.03;53.47;;;;;;;;;;4950194;28;20053;-83
2021/09/11 13:54:42;;;;;;;73.13;53.28;;;;;;;;;;4996468;28;20029;-83
2021/09/11 13:57:08;;;;;;;33.47;22.25;;;;;;;;;;5000552;28;20064;-83
2021/09/11 13:59:39;;;;;;;29.85;19.15;;;;;;;;;;4996802;28;20106;-84
2021/09/11 14:02:05;;;;;;;18.90;12.25;;;;;;;;;;4998980;28;20037;-83
2021/09/11 14:04:34;;;;;;;72.78;61.08;;;;;;;;;;4996004;28;20041;-81
2021/09/11 14:07:00;;;;;;;41.58;31.70;;;;;;;;;;4980573;28;20048;-81
2021/09/11 14:09:26;;;;;;;32.35;23.65;;;;;;;;;;4992386;28;20041;-81
2021/09/11 14:11:52;;;;;;;21.42;13.18;;;;;;;;;;4999546;28;20133;-80
2021/09/11 14:14:21;;;;;;;79.47;60.45;;;;;;;;;;4999762;28;20112;-82
2021/09/11 14:16:52;;;;;;;154.60;115.93;;;;;;;;;;4986334;28;20111;-85
2021/09/11 14:19:18;;;;;;;471.77;346.30;;;;;;;;;;5000884;28;20045;-86
2021/09/11 14:21:44;;;;;;;307.15;217.23;;;;;;;;;;5001975;28;20071;-81
2021/09/11 14:24:14;;;;;;;109.38;68.78;;;;;;;;;;5027493;28;20040;-84
2021/09/11 14:26:39;;;;;;;35.75;20.45;;;;;;;;;;5001794;28;20044;-83
2021/09/11 14:29:06;;;;;;;649.50;330.17;;;;;;;;;;5000109;28;20399;-83
2021/09/11 14:31:32;;;;;;;375.73;220.60;;;;;;;;;;5016076;28;20068;-82
2021/09/11 14:34:01;;;;;;;191.02;109.57;;;;;;;;;;5003592;28;20033;-83
2021/09/11 14:36:28;;;;;;;937.53;586.78;;;;;;;;;;4981235;28;20106;-84
2021/09/11 14:38:54;;;;;;;740.20;452.55;;;;;;;;;;4987818;28;20033;-81
2021/09/11 14:41:20;;;;;;;628.40;434.27;;;;;;;;;;4999994;28;20450;-82